createdAt,value
2023-02-22T00:01:42.808Z,13.80
2023-02-22T00:04:11.028Z,14.20
2023-02-22T00:06:37.387Z,14.27
2023-02-22T00:09:03.892Z,13.67
2023-02-22T00:11:31.480Z,13.97
2023-02-22T00:13:57.874Z,13.40
2023-02-22T00:16:25.717Z,13.63
2023-02-22T00:18:53.275Z,13.90
2023-02-22T00:21:20.452Z,14.17
2023-02-22T00:23:48.314Z,14.80
2023-02-22T00:26:21.819Z,13.67
2023-02-22T00:28:52.045Z,13.50
2023-02-22T00:31:19.941Z,13.40
2023-02-22T00:33:46.490Z,12.40
2023-02-22T00:36:13.765Z,13.30
2023-02-22T00:38:41.100Z,12.93
2023-02-22T00:41:07.829Z,13.70
2023-02-22T00:43:34.683Z,13.27
2023-02-22T00:46:01.452Z,12.47
2023-02-22T00:48:28.341Z,12.97
2023-02-22T00:50:55.112Z,12.67
2023-02-22T00:53:25.774Z,12.90
2023-02-22T00:55:52.714Z,12.40
2023-02-22T00:58:19.632Z,13.00
2023-02-22T01:00:46.451Z,13.80
2023-02-22T01:03:15.212Z,13.00
2023-02-22T01:05:42.527Z,13.03
2023-02-22T01:08:10.446Z,11.37
2023-02-22T01:10:38.630Z,11.63
2023-02-22T01:13:08.484Z,12.10
2023-02-22T01:15:37.822Z,12.83
2023-02-22T01:18:05.180Z,11.93
2023-02-22T01:20:32.326Z,12.03
2023-02-22T01:23:00.358Z,13.10
2023-02-22T01:25:29.094Z,13.00
2023-02-22T01:27:56.912Z,12.07
2023-02-22T01:30:25.996Z,12.00
2023-02-22T01:32:52.890Z,11.87
2023-02-22T01:35:23.402Z,11.60
2023-02-22T01:37:49.837Z,11.10
2023-02-22T01:40:23.291Z,12.47
2023-02-22T01:42:57.605Z,12.97
2023-02-22T01:45:41.817Z,12.20
2023-02-22T01:48:20.485Z,12.67
2023-02-22T01:50:58.137Z,12.37
2023-02-22T01:53:35.211Z,12.07
2023-02-22T01:56:03.105Z,13.20
2023-02-22T01:58:33.508Z,13.00
2023-02-22T02:01:01.062Z,12.47
2023-02-22T02:03:33.635Z,14.53
2023-02-22T02:06:14.622Z,12.70
2023-02-22T02:08:51.384Z,14.20
2023-02-22T02:11:28.141Z,14.87
2023-02-22T02:13:57.104Z,15.17
2023-02-22T02:16:27.666Z,15.07
2023-02-22T02:18:54.497Z,16.03
2023-02-22T02:21:43.737Z,17.43
2023-02-22T02:24:43.612Z,16.27
2023-02-22T02:27:31.089Z,18.00
2023-02-22T02:30:06.267Z,17.53
2023-02-22T02:32:48.918Z,17.57
2023-02-22T02:35:33.549Z,17.63
2023-02-22T02:38:45.231Z,14.93
2023-02-22T02:41:29.203Z,15.00
2023-02-22T02:44:17.483Z,14.53
2023-02-22T02:46:56.183Z,16.07
2023-02-22T02:49:28.982Z,15.20
2023-02-22T02:51:58.360Z,16.23
2023-02-22T02:54:24.906Z,16.90
2023-02-22T02:56:51.230Z,18.87
2023-02-22T02:59:39.300Z,15.73
2023-02-22T03:02:51.267Z,15.77
2023-02-22T03:05:45.566Z,14.60
2023-02-22T03:08:34.965Z,13.90
2023-02-22T03:11:14.938Z,15.90
2023-02-22T03:14:10.970Z,16.90
2023-02-22T03:17:04.476Z,17.60
2023-02-22T03:19:37.054Z,16.37
2023-02-22T03:22:20.570Z,16.50
2023-02-22T03:24:53.689Z,16.17
2023-02-22T03:27:31.828Z,17.57
2023-02-22T03:30:08.602Z,16.33
2023-02-22T03:32:42.556Z,15.40
2023-02-22T03:35:14.632Z,17.53
2023-02-22T03:37:46.738Z,16.13
2023-02-22T03:40:19.246Z,15.63
2023-02-22T03:42:51.532Z,17.60
2023-02-22T03:45:21.131Z,15.23
2023-02-22T03:47:51.670Z,15.97
2023-02-22T03:50:32.040Z,15.53
2023-02-22T03:52:59.062Z,15.93
2023-02-22T03:55:25.465Z,18.03
2023-02-22T03:57:58.635Z,15.67
2023-02-22T04:00:29.432Z,18.30
2023-02-22T04:02:56.165Z,16.30
2023-02-22T04:05:24.664Z,14.73
2023-02-22T04:07:55.987Z,15.70
2023-02-22T04:10:23.532Z,15.40
2023-02-22T04:12:50.828Z,17.77
2023-02-22T04:15:20.516Z,16.73
2023-02-22T04:17:46.853Z,16.47
2023-02-22T04:20:13.780Z,19.07
2023-02-22T04:22:41.079Z,16.10
2023-02-22T04:25:07.820Z,15.13
2023-02-22T04:27:34.330Z,15.60
2023-02-22T04:30:00.661Z,15.50
2023-02-22T04:32:27.489Z,15.13
2023-02-22T04:34:53.884Z,14.23
2023-02-22T04:37:20.388Z,14.27
2023-02-22T04:39:46.706Z,15.73
2023-02-22T04:42:13.053Z,14.97
2023-02-22T04:44:39.383Z,15.00
2023-02-22T04:47:05.670Z,13.33
2023-02-22T04:49:31.977Z,12.97
2023-02-22T04:51:58.232Z,12.77
2023-02-22T04:54:24.861Z,13.90
2023-02-22T04:56:52.081Z,14.83
2023-02-22T04:59:19.682Z,14.20
2023-02-22T05:01:46.257Z,15.33
2023-02-22T05:04:12.616Z,16.37
2023-02-22T05:06:38.941Z,16.33
2023-02-22T05:09:05.843Z,16.90
2023-02-22T05:11:32.169Z,19.07
2023-02-22T05:13:58.442Z,20.33
2023-02-22T05:16:24.898Z,17.10
2023-02-22T05:18:51.286Z,17.87
2023-02-22T05:21:17.939Z,14.57
2023-02-22T05:23:44.528Z,15.50
2023-02-22T05:26:11.609Z,15.23
2023-02-22T05:28:40.528Z,15.00
2023-02-22T05:31:07.268Z,14.50
2023-02-22T05:33:33.654Z,14.13
2023-02-22T05:35:59.957Z,14.27
2023-02-22T05:38:26.201Z,13.83
2023-02-22T05:40:52.547Z,14.10
2023-02-22T05:43:19.013Z,15.03
2023-02-22T05:45:45.504Z,13.87
2023-02-22T05:48:12.852Z,14.20
2023-02-22T05:50:39.170Z,14.40
2023-02-22T05:53:05.564Z,15.23
2023-02-22T05:55:31.986Z,15.43
2023-02-22T05:58:01.722Z,15.10
2023-02-22T06:00:30.402Z,15.20
2023-02-22T06:02:57.680Z,14.87
2023-02-22T06:05:24.161Z,15.37
2023-02-22T06:07:50.925Z,13.93
2023-02-22T06:10:17.269Z,15.30
2023-02-22T06:12:44.241Z,15.03
2023-02-22T06:15:10.536Z,15.47
2023-02-22T06:17:36.903Z,16.47
2023-02-22T06:20:03.782Z,15.60
2023-02-22T06:22:30.077Z,15.87
2023-02-22T06:24:56.391Z,17.33
2023-02-22T06:27:22.660Z,17.87
2023-02-22T06:29:49.056Z,16.20
2023-02-22T06:32:15.411Z,18.27
2023-02-22T06:34:41.793Z,16.93
2023-02-22T06:37:08.263Z,16.50
2023-02-22T06:39:34.565Z,16.93
2023-02-22T06:42:00.858Z,16.83
2023-02-22T06:44:27.145Z,17.17
2023-02-22T06:46:53.446Z,20.83
2023-02-22T06:49:20.725Z,17.70
2023-02-22T06:51:47.719Z,18.07
2023-02-22T06:54:14.430Z,21.10
2023-02-22T06:56:40.877Z,18.03
2023-02-22T06:59:08.346Z,18.23
2023-02-22T07:01:34.774Z,21.40
2023-02-22T07:04:01.349Z,19.27
2023-02-22T07:06:27.698Z,19.63
2023-02-22T07:08:54.667Z,17.67
2023-02-22T07:11:21.055Z,18.80
2023-02-22T07:13:47.321Z,16.80
2023-02-22T07:16:13.679Z,16.37
2023-02-22T07:18:40.025Z,18.37
2023-02-22T07:21:07.537Z,17.30
2023-02-22T07:23:33.859Z,17.30
2023-02-22T07:26:01.378Z,17.37
2023-02-22T07:28:27.908Z,17.37
2023-02-22T07:30:54.241Z,16.63
2023-02-22T07:33:20.555Z,17.97
2023-02-22T07:35:49.119Z,17.73
2023-02-22T07:38:18.277Z,17.03
2023-02-22T07:40:45.187Z,16.77
2023-02-22T07:43:17.834Z,16.97
2023-02-22T07:45:44.422Z,16.83
2023-02-22T07:48:12.468Z,17.60
2023-02-22T07:50:39.985Z,17.27
2023-02-22T07:53:11.631Z,18.53
2023-02-22T07:55:38.130Z,18.27
2023-02-22T07:58:07.761Z,16.13
2023-02-22T08:00:34.028Z,15.63
2023-02-22T08:03:02.563Z,17.00
2023-02-22T08:05:30.789Z,16.40
2023-02-22T08:07:57.459Z,16.13
2023-02-22T08:10:25.376Z,15.47
2023-02-22T08:12:52.729Z,14.83
2023-02-22T08:15:49.580Z,15.00
2023-02-22T08:18:18.217Z,14.13
2023-02-22T08:20:46.985Z,15.30
2023-02-22T08:23:15.203Z,13.87
2023-02-22T08:25:41.656Z,14.03
2023-02-22T08:28:11.260Z,15.07
2023-02-22T08:30:40.385Z,13.53
2023-02-22T08:33:07.176Z,14.27
2023-02-22T08:35:33.886Z,14.17
2023-02-22T08:38:03.440Z,13.97
2023-02-22T08:40:32.565Z,13.20
2023-02-22T08:42:59.438Z,13.10
2023-02-22T08:45:25.783Z,15.23
2023-02-22T08:47:52.199Z,13.63
2023-02-22T08:50:22.048Z,13.40
2023-02-22T08:52:58.538Z,13.90
2023-02-22T08:55:27.300Z,14.13
2023-02-22T08:57:53.590Z,13.50
2023-02-22T09:00:24.628Z,12.67
2023-02-22T09:02:52.336Z,11.87
2023-02-22T09:05:18.903Z,11.97
2023-02-22T09:07:45.626Z,12.37
2023-02-22T09:10:26.149Z,12.17
2023-02-22T09:12:55.364Z,12.37
2023-02-22T09:15:22.947Z,11.10
2023-02-22T09:17:49.593Z,11.13
2023-02-22T09:20:18.181Z,11.57
2023-02-22T09:22:45.606Z,11.23
2023-02-22T09:25:17.146Z,11.80
2023-02-22T09:27:44.196Z,12.03
2023-02-22T09:30:23.515Z,10.87
2023-02-22T09:32:55.451Z,12.80
2023-02-22T09:35:26.860Z,11.40
2023-02-22T09:37:58.386Z,11.90
2023-02-22T09:40:29.561Z,12.77
2023-02-22T09:42:56.425Z,13.63
2023-02-22T09:45:27.660Z,13.20
2023-02-22T09:48:08.069Z,14.50
2023-02-22T09:50:45.515Z,14.90
2023-02-22T09:53:29.374Z,14.43
2023-02-22T09:56:00.469Z,14.83
2023-02-22T09:58:36.651Z,13.60
2023-02-22T10:01:27.963Z,13.60
2023-02-22T10:04:06.632Z,13.10
2023-02-22T10:06:34.437Z,13.03
2023-02-22T10:09:07.710Z,13.83
2023-02-22T10:11:58.325Z,13.10
2023-02-22T10:14:44.024Z,13.37
2023-02-22T10:17:46.086Z,14.40
2023-02-22T10:20:37.122Z,14.50
2023-02-22T10:23:21.234Z,14.80
2023-02-22T10:25:55.706Z,14.47
2023-02-22T10:28:30.919Z,15.40
2023-02-22T10:31:02.154Z,15.80
2023-02-22T10:33:38.201Z,15.67
2023-02-22T10:36:04.748Z,15.67
2023-02-22T10:38:35.030Z,17.40
2023-02-22T10:41:10.617Z,16.60
2023-02-22T10:43:41.422Z,16.67
2023-02-22T10:46:12.245Z,17.60
2023-02-22T10:48:42.008Z,17.93
2023-02-22T10:51:10.000Z,17.40
2023-02-22T10:53:38.406Z,17.73
2023-02-22T10:56:24.724Z,20.40
2023-02-22T10:58:59.759Z,19.93
2023-02-22T11:01:32.154Z,20.03
2023-02-22T11:04:02.029Z,19.87
2023-02-22T11:06:29.333Z,21.13
2023-02-22T11:09:18.897Z,19.97
2023-02-22T11:11:47.209Z,19.77
2023-02-22T11:14:29.054Z,20.33
2023-02-22T11:16:58.510Z,20.90
2023-02-22T11:19:27.583Z,19.90
2023-02-22T11:22:11.504Z,20.87
2023-02-22T11:24:51.877Z,20.80
2023-02-22T11:27:31.458Z,20.63
2023-02-22T11:30:29.207Z,21.00
2023-02-22T11:33:06.014Z,23.23
2023-02-22T11:35:36.920Z,22.10
2023-02-22T11:38:27.400Z,22.20
2023-02-22T11:41:17.192Z,22.07
2023-02-22T11:43:45.938Z,22.23
2023-02-22T11:46:14.203Z,22.73
2023-02-22T11:48:56.909Z,20.80
2023-02-22T11:51:45.051Z,20.63
2023-02-22T11:54:39.469Z,19.80
2023-02-22T11:57:17.750Z,20.13
2023-02-22T12:00:01.677Z,21.07
2023-02-22T12:03:10.356Z,18.67
2023-02-22T12:06:12.041Z,21.07
2023-02-22T12:09:13.868Z,19.10
2023-02-22T12:11:51.609Z,19.33
2023-02-22T12:14:34.392Z,19.40
2023-02-22T12:17:43.619Z,19.07
2023-02-22T12:20:30.840Z,19.13
2023-02-22T12:23:14.112Z,20.10
2023-02-22T12:26:11.886Z,19.80
2023-02-22T12:28:43.587Z,19.60
2023-02-22T12:31:33.975Z,20.07
2023-02-22T12:34:19.800Z,19.80
2023-02-22T12:36:54.381Z,20.03
2023-02-22T12:39:52.096Z,19.37
2023-02-22T12:42:55.646Z,20.17
2023-02-22T12:45:31.751Z,20.43
2023-02-22T12:48:21.476Z,21.03
2023-02-22T12:50:53.274Z,20.00
2023-02-22T12:53:28.336Z,20.27
2023-02-22T12:56:04.516Z,19.87
2023-02-22T12:58:46.303Z,20.80
2023-02-22T13:01:20.023Z,19.93
2023-02-22T13:03:46.775Z,19.93
2023-02-22T13:06:33.937Z,20.57
2023-02-22T13:09:29.642Z,19.73
2023-02-22T13:12:22.196Z,19.03
2023-02-22T13:14:56.098Z,19.47
2023-02-22T13:17:38.707Z,18.37
2023-02-22T13:20:26.313Z,17.97
2023-02-22T13:22:59.266Z,18.37
2023-02-22T13:25:35.312Z,18.67
2023-02-22T13:28:23.209Z,19.23
2023-02-22T13:31:14.267Z,18.80
2023-02-22T13:34:19.010Z,17.87
2023-02-22T13:36:58.076Z,18.83
2023-02-22T13:39:36.347Z,17.77
2023-02-22T13:42:25.165Z,17.80
2023-02-22T13:45:26.940Z,18.27
2023-02-22T13:48:13.217Z,17.20
2023-02-22T13:51:06.502Z,18.53
2023-02-22T13:53:46.923Z,18.73
2023-02-22T13:56:15.107Z,19.37
2023-02-22T13:58:54.125Z,20.23
2023-02-22T14:01:43.368Z,19.63
2023-02-22T14:04:28.176Z,19.10
2023-02-22T14:07:02.909Z,19.90
2023-02-22T14:09:46.816Z,19.27
2023-02-22T14:12:28.383Z,18.13
2023-02-22T14:15:22.015Z,20.07
2023-02-22T14:17:56.932Z,20.20
2023-02-22T14:20:29.892Z,17.87
2023-02-22T14:22:57.782Z,21.43
2023-02-22T14:25:39.012Z,20.80
2023-02-22T14:28:09.282Z,20.10
2023-02-22T14:30:38.426Z,20.33
2023-02-22T14:33:44.287Z,19.23
2023-02-22T14:36:11.288Z,16.73
2023-02-22T14:38:37.889Z,18.53
2023-02-22T14:41:05.830Z,18.50
2023-02-22T14:43:37.178Z,17.70
2023-02-22T14:46:05.900Z,19.77
2023-02-22T14:48:42.890Z,19.90
2023-02-22T14:51:29.117Z,17.50
2023-02-22T14:54:30.374Z,18.07
2023-02-22T14:57:14.480Z,19.07
2023-02-22T15:00:30.976Z,17.90
2023-02-22T15:02:59.792Z,15.67
2023-02-22T15:05:30.355Z,17.13
2023-02-22T15:08:03.207Z,20.57
2023-02-22T15:10:31.801Z,20.20
2023-02-22T15:13:09.911Z,19.23
2023-02-22T15:15:39.040Z,18.10
2023-02-22T15:18:17.334Z,17.63
2023-02-22T15:20:43.795Z,19.60
2023-02-22T15:23:10.800Z,17.17
2023-02-22T15:25:39.101Z,19.33
2023-02-22T15:28:09.468Z,18.93
2023-02-22T15:30:35.988Z,19.33
2023-02-22T15:33:24.470Z,17.50
2023-02-22T15:35:57.623Z,19.70
2023-02-22T15:38:29.543Z,18.53
2023-02-22T15:41:04.180Z,19.50
2023-02-22T15:43:32.060Z,19.43
2023-02-22T15:45:59.851Z,19.77
2023-02-22T15:48:27.813Z,19.13
2023-02-22T15:51:06.952Z,19.17
2023-02-22T15:53:40.045Z,18.17
2023-02-22T15:56:12.280Z,18.00
2023-02-22T15:58:39.107Z,18.33
2023-02-22T16:01:17.043Z,18.07
2023-02-22T16:03:56.186Z,17.77
2023-02-22T16:06:36.200Z,17.00
2023-02-22T16:09:18.229Z,18.37
2023-02-22T16:11:46.374Z,20.47
2023-02-22T16:14:34.302Z,19.10
2023-02-22T16:17:29.490Z,20.03
2023-02-22T16:20:00.758Z,19.23
2023-02-22T16:22:36.060Z,19.73
2023-02-22T16:25:17.722Z,16.33
2023-02-22T16:27:48.095Z,19.33
2023-02-22T16:30:24.049Z,18.77
2023-02-22T16:32:53.241Z,18.83
2023-02-22T16:35:19.673Z,19.27
2023-02-22T16:37:51.575Z,19.13
2023-02-22T16:40:34.227Z,19.13
2023-02-22T16:43:06.832Z,18.77
2023-02-22T16:45:34.185Z,18.83
2023-02-22T16:48:04.642Z,19.93
2023-02-22T16:50:30.973Z,19.80
2023-02-22T16:52:59.993Z,17.83
2023-02-22T16:55:26.751Z,20.90
2023-02-22T16:57:56.847Z,20.00
2023-02-22T17:00:31.138Z,18.20
2023-02-22T17:03:05.341Z,19.97
2023-02-22T17:05:36.169Z,20.80
2023-02-22T17:08:03.683Z,20.80
2023-02-22T17:10:30.325Z,20.13
2023-02-22T17:12:58.045Z,20.00
2023-02-22T17:15:34.654Z,19.77
2023-02-22T17:18:06.312Z,17.20
2023-02-22T17:20:32.735Z,17.33
2023-02-22T17:23:01.271Z,18.07
2023-02-22T17:25:32.637Z,18.37
2023-02-22T17:27:58.906Z,20.90
2023-02-22T17:30:25.577Z,20.03
2023-02-22T17:32:52.697Z,21.00
2023-02-22T17:35:23.067Z,20.63
2023-02-22T17:37:50.343Z,19.60
2023-02-22T17:40:17.021Z,20.97
2023-02-22T17:42:45.958Z,22.30
2023-02-22T17:45:14.011Z,22.03
2023-02-22T17:47:42.396Z,22.13
2023-02-22T17:50:11.317Z,19.90
2023-02-22T17:52:38.201Z,20.77
2023-02-22T17:55:05.710Z,21.20
2023-02-22T17:57:32.160Z,21.00
2023-02-22T18:00:00.207Z,21.63
2023-02-22T18:02:26.966Z,20.90
2023-02-22T18:04:53.332Z,22.00
2023-02-22T18:07:19.828Z,21.83
2023-02-22T18:09:46.922Z,22.07
2023-02-22T18:12:13.314Z,23.03
2023-02-22T18:14:39.601Z,24.07
2023-02-22T18:17:06.040Z,23.10
2023-02-22T18:19:32.355Z,23.73
2023-02-22T18:22:00.154Z,24.30
2023-02-22T18:24:26.970Z,27.63
2023-02-22T18:26:53.396Z,24.13
2023-02-22T18:29:19.721Z,25.83
2023-02-22T18:31:46.051Z,25.10
2023-02-22T18:34:13.039Z,25.33
2023-02-22T18:36:39.712Z,23.80
2023-02-22T18:39:11.504Z,23.57
2023-02-22T18:41:38.576Z,23.67
2023-02-22T18:44:10.825Z,24.10
2023-02-22T18:46:37.148Z,24.43
2023-02-22T18:49:04.254Z,25.80
2023-02-22T18:51:30.762Z,23.97
2023-02-22T18:54:00.280Z,25.23
2023-02-22T18:56:33.768Z,24.87
2023-02-22T18:59:02.788Z,26.00
2023-02-22T19:01:31.362Z,25.43
2023-02-22T19:03:57.813Z,26.23
2023-02-22T19:06:24.271Z,25.37
2023-02-22T19:08:50.850Z,27.30
2023-02-22T19:11:19.567Z,26.70
2023-02-22T19:13:47.518Z,24.10
2023-02-22T19:16:15.227Z,23.90
2023-02-22T19:18:43.910Z,27.50
2023-02-22T19:21:11.041Z,25.47
2023-02-22T19:23:45.199Z,25.50
2023-02-22T19:26:21.079Z,24.57
2023-02-22T19:28:48.690Z,24.90
2023-02-22T19:31:23.212Z,25.83
2023-02-22T19:33:52.205Z,26.10
2023-02-22T19:36:20.487Z,25.57
2023-02-22T19:38:46.789Z,24.67
2023-02-22T19:41:18.080Z,23.73
2023-02-22T19:43:46.083Z,24.23
2023-02-22T19:46:12.982Z,24.63
2023-02-22T19:48:39.766Z,25.17
2023-02-22T19:51:08.250Z,24.43
2023-02-22T19:53:35.252Z,26.83
2023-02-22T19:56:06.469Z,26.50
2023-02-22T19:58:36.525Z,25.67
2023-02-22T20:01:13.227Z,24.17
2023-02-22T20:03:41.614Z,23.37
2023-02-22T20:06:11.897Z,24.50
2023-02-22T20:08:41.890Z,23.50
2023-02-22T20:11:11.623Z,26.00
2023-02-22T20:13:38.652Z,26.03
2023-02-22T20:16:05.374Z,24.73
2023-02-22T20:18:31.770Z,24.60
2023-02-22T20:20:58.068Z,24.30
2023-02-22T20:23:24.402Z,24.77
2023-02-22T20:25:52.508Z,23.73
2023-02-22T20:28:18.814Z,24.27
2023-02-22T20:30:45.212Z,24.37
2023-02-22T20:33:13.464Z,23.27
2023-02-22T20:35:40.148Z,23.00
2023-02-22T20:38:06.573Z,24.47
2023-02-22T20:40:32.925Z,24.03
2023-02-22T20:42:59.215Z,22.63
2023-02-22T20:45:25.637Z,23.83
2023-02-22T20:47:52.030Z,23.57
2023-02-22T20:50:18.451Z,22.77
2023-02-22T20:52:45.191Z,22.77
2023-02-22T20:55:11.565Z,21.17
2023-02-22T20:57:38.369Z,20.20
2023-02-22T21:00:05.397Z,20.67
2023-02-22T21:02:31.694Z,23.80
2023-02-22T21:04:58.022Z,22.37
2023-02-22T21:07:24.478Z,22.90
2023-02-22T21:09:50.814Z,23.10
2023-02-22T21:12:17.169Z,23.97
2023-02-22T21:14:46.192Z,25.67
2023-02-22T21:17:12.527Z,26.30
2023-02-22T21:19:38.836Z,23.97
2023-02-22T21:22:08.045Z,27.10
2023-02-22T21:24:36.655Z,28.87
2023-02-22T21:27:03.488Z,30.30
2023-02-22T21:29:29.859Z,29.50
2023-02-22T21:31:56.499Z,29.00
2023-02-22T21:34:23.444Z,29.70
2023-02-22T21:36:50.480Z,30.40
2023-02-22T21:39:19.815Z,30.00
2023-02-22T21:41:51.143Z,29.77
2023-02-22T21:44:18.327Z,29.40
2023-02-22T21:46:46.702Z,31.57
2023-02-22T21:49:13.064Z,30.93
2023-02-22T21:51:39.412Z,29.80
2023-02-22T21:54:08.356Z,29.30
2023-02-22T21:56:37.602Z,27.87
2023-02-22T21:59:07.212Z,28.67
2023-02-22T22:01:36.533Z,28.27
2023-02-22T22:04:04.324Z,30.70
2023-02-22T22:06:32.196Z,31.23
2023-02-22T22:09:00.056Z,31.03
2023-02-22T22:11:26.737Z,30.53
2023-02-22T22:13:57.342Z,29.97
2023-02-22T22:16:25.931Z,30.63
2023-02-22T22:18:53.085Z,27.30
2023-02-22T22:21:22.622Z,27.40
2023-02-22T22:23:50.384Z,26.50
2023-02-22T22:26:19.863Z,28.00
2023-02-22T22:28:49.639Z,28.37
2023-02-22T22:31:19.523Z,26.33
2023-02-22T22:33:46.349Z,25.60
2023-02-22T22:36:15.738Z,26.07
2023-02-22T22:38:43.102Z,26.43
2023-02-22T22:41:13.133Z,25.10
2023-02-22T22:43:41.375Z,23.00
2023-02-22T22:46:08.551Z,22.70
2023-02-22T22:48:38.910Z,22.13
2023-02-22T22:51:09.699Z,23.50
2023-02-22T22:53:38.587Z,23.00
2023-02-22T22:56:19.142Z,23.90
2023-02-22T22:58:51.087Z,22.37
2023-02-22T23:01:20.208Z,22.97
2023-02-22T23:03:54.582Z,22.17
2023-02-22T23:06:26.581Z,23.27
2023-02-22T23:09:11.894Z,21.80
2023-02-22T23:11:44.329Z,24.47
2023-02-22T23:14:18.869Z,22.37
2023-02-22T23:16:50.068Z,24.43
2023-02-22T23:19:16.726Z,22.43
2023-02-22T23:21:46.277Z,22.00
2023-02-22T23:24:17.504Z,23.90
2023-02-22T23:26:51.228Z,23.90
2023-02-22T23:29:19.385Z,24.30
2023-02-22T23:31:48.213Z,22.30
2023-02-22T23:34:20.876Z,23.00
2023-02-22T23:36:47.526Z,22.57
2023-02-22T23:39:21.758Z,22.80
2023-02-22T23:41:53.366Z,23.53
2023-02-22T23:44:21.189Z,22.30
2023-02-22T23:46:48.896Z,22.00
2023-02-22T23:49:20.300Z,21.43
2023-02-22T23:51:47.040Z,20.73
2023-02-22T23:54:16.111Z,20.57
2023-02-22T23:56:53.513Z,21.20
2023-02-22T23:59:19.941Z,19.90
